createdAt,value
2023-01-10T00:01:46.819Z,7.00
2023-01-10T00:04:16.530Z,7.10
2023-01-10T00:06:44.696Z,7.20
2023-01-10T00:09:12.999Z,7.10
2023-01-10T00:11:58.828Z,7.10
2023-01-10T00:14:29.160Z,7.20
2023-01-10T00:16:57.868Z,7.10
2023-01-10T00:19:27.633Z,7.10
2023-01-10T00:21:57.489Z,7.00
2023-01-10T00:24:25.768Z,7.00
2023-01-10T00:26:54.273Z,7.10
2023-01-10T00:29:24.116Z,6.90
2023-01-10T00:31:52.449Z,7.00
2023-01-10T00:34:21.190Z,7.00
2023-01-10T00:36:50.931Z,6.90
2023-01-10T00:39:20.440Z,7.00
2023-01-10T00:42:06.056Z,6.90
2023-01-10T00:44:34.245Z,7.00
2023-01-10T00:47:02.470Z,7.00
2023-01-10T00:49:30.781Z,6.90
2023-01-10T00:52:00.383Z,7.10
2023-01-10T00:54:28.552Z,7.10
2023-01-10T00:56:56.895Z,7.00
2023-01-10T00:59:25.592Z,6.90
2023-01-10T01:01:54.084Z,6.80
2023-01-10T01:04:22.725Z,6.80
2023-01-10T01:06:51.009Z,6.70
2023-01-10T01:09:20.692Z,6.70
2023-01-10T01:11:49.552Z,6.70
2023-01-10T01:14:17.770Z,6.80
2023-01-10T01:16:45.884Z,6.80
2023-01-10T01:19:14.389Z,6.70
2023-01-10T01:21:42.511Z,6.70
2023-01-10T01:24:12.159Z,6.80
2023-01-10T01:26:42.827Z,6.90
2023-01-10T01:29:11.414Z,6.90
2023-01-10T01:31:39.552Z,7.00
2023-01-10T01:34:07.903Z,7.00
2023-01-10T01:36:36.036Z,7.00
2023-01-10T01:39:06.239Z,6.90
2023-01-10T01:41:52.089Z,7.00
2023-01-10T01:44:21.797Z,6.80
2023-01-10T01:46:55.150Z,6.70
2023-01-10T01:49:25.446Z,6.70
2023-01-10T01:51:59.645Z,6.80
2023-01-10T01:54:29.130Z,6.80
2023-01-10T01:57:00.054Z,6.70
2023-01-10T01:59:33.800Z,6.80
2023-01-10T02:02:09.096Z,6.80
2023-01-10T02:04:45.268Z,7.10
2023-01-10T02:07:14.641Z,6.70
2023-01-10T02:09:46.891Z,6.80
2023-01-10T02:12:16.692Z,6.80
2023-01-10T02:14:48.299Z,7.20
2023-01-10T02:17:16.776Z,6.80
2023-01-10T02:19:54.546Z,6.80
2023-01-10T02:22:49.727Z,6.80
2023-01-10T02:25:49.964Z,6.80
2023-01-10T02:28:44.788Z,6.90
2023-01-10T02:31:33.223Z,6.90
2023-01-10T02:34:09.080Z,6.90
2023-01-10T02:36:45.403Z,6.90
2023-01-10T02:39:20.460Z,6.90
2023-01-10T02:41:58.062Z,6.80
2023-01-10T02:44:31.099Z,6.80
2023-01-10T02:46:59.326Z,6.70
2023-01-10T02:49:28.798Z,6.70
2023-01-10T02:51:57.922Z,6.80
2023-01-10T02:54:30.855Z,6.80
2023-01-10T02:57:23.365Z,6.80
2023-01-10T03:00:30.905Z,6.70
2023-01-10T03:03:13.162Z,6.90
2023-01-10T03:05:54.176Z,6.80
2023-01-10T03:08:34.061Z,6.80
2023-01-10T03:11:04.168Z,6.80
2023-01-10T03:13:38.001Z,6.70
2023-01-10T03:16:10.813Z,6.70
2023-01-10T03:18:44.810Z,6.60
2023-01-10T03:21:15.374Z,6.60
2023-01-10T03:23:44.026Z,6.70
2023-01-10T03:26:14.116Z,6.70
2023-01-10T03:28:48.244Z,6.60
2023-01-10T03:31:19.773Z,6.70
2023-01-10T03:33:49.872Z,6.70
2023-01-10T03:36:31.029Z,6.60
2023-01-10T03:39:06.596Z,6.60
2023-01-10T03:41:41.414Z,6.50
2023-01-10T03:44:41.465Z,6.60
2023-01-10T03:47:12.629Z,6.60
2023-01-10T03:49:43.386Z,6.70
2023-01-10T03:52:16.409Z,6.70
2023-01-10T03:54:45.231Z,6.60
2023-01-10T03:57:21.052Z,6.60
2023-01-10T03:59:51.937Z,6.70
2023-01-10T04:02:20.163Z,6.60
2023-01-10T04:04:48.426Z,6.90
2023-01-10T04:07:17.998Z,6.60
2023-01-10T04:09:46.229Z,6.60
2023-01-10T04:12:14.395Z,6.60
2023-01-10T04:14:42.869Z,6.60
2023-01-10T04:17:10.991Z,6.50
2023-01-10T04:19:39.263Z,6.60
2023-01-10T04:22:07.473Z,6.70
2023-01-10T04:24:37.118Z,6.70
2023-01-10T04:27:05.584Z,6.80
2023-01-10T04:29:33.889Z,6.70
2023-01-10T04:32:02.082Z,6.70
2023-01-10T04:34:30.272Z,6.80
2023-01-10T04:36:58.436Z,6.70
2023-01-10T04:39:26.687Z,6.70
2023-01-10T04:41:56.172Z,6.70
2023-01-10T04:44:24.401Z,6.80
2023-01-10T04:46:52.557Z,6.70
2023-01-10T04:49:20.790Z,6.80
2023-01-10T04:51:48.976Z,6.80
2023-01-10T04:54:21.291Z,6.80
2023-01-10T04:56:49.701Z,6.80
2023-01-10T04:59:19.392Z,6.70
2023-01-10T05:01:47.758Z,6.70
2023-01-10T05:04:16.156Z,6.70
2023-01-10T05:06:44.468Z,6.80
2023-01-10T05:09:12.604Z,6.80
2023-01-10T05:11:40.826Z,6.80
2023-01-10T05:14:09.210Z,6.80
2023-01-10T05:16:38.849Z,6.80
2023-01-10T05:19:07.029Z,6.90
2023-01-10T05:21:35.184Z,6.70
2023-01-10T05:24:03.382Z,6.60
2023-01-10T05:26:31.696Z,6.60
2023-01-10T05:28:59.810Z,6.60
2023-01-10T05:31:28.073Z,6.60
2023-01-10T05:33:57.628Z,6.50
2023-01-10T05:36:25.807Z,6.50
2023-01-10T05:38:53.965Z,6.70
2023-01-10T05:41:22.197Z,6.70
2023-01-10T05:43:50.519Z,6.60
2023-01-10T05:46:18.796Z,6.60
2023-01-10T05:48:47.059Z,6.60
2023-01-10T05:51:16.643Z,6.60
2023-01-10T05:53:44.763Z,6.70
2023-01-10T05:56:13.046Z,6.70
2023-01-10T05:58:41.191Z,6.70
2023-01-10T06:01:09.915Z,6.60
2023-01-10T06:03:38.476Z,6.60
2023-01-10T06:06:07.277Z,6.60
2023-01-10T06:08:37.944Z,6.50
2023-01-10T06:11:07.011Z,6.50
2023-01-10T06:13:35.232Z,6.60
2023-01-10T06:16:03.518Z,6.70
2023-01-10T06:18:31.742Z,6.80
2023-01-10T06:20:59.975Z,6.70
2023-01-10T06:23:30.293Z,6.70
2023-01-10T06:26:00.096Z,6.70
2023-01-10T06:28:28.303Z,6.70
2023-01-10T06:30:56.477Z,6.60
2023-01-10T06:33:24.889Z,6.70
2023-01-10T06:35:53.155Z,6.60
2023-01-10T06:38:21.463Z,6.50
2023-01-10T06:40:49.657Z,6.60
2023-01-10T06:43:19.230Z,6.60
2023-01-10T06:45:47.502Z,6.50
2023-01-10T06:48:16.395Z,6.70
2023-01-10T06:50:44.620Z,6.50
2023-01-10T06:53:12.753Z,6.60
2023-01-10T06:55:41.089Z,6.70
2023-01-10T06:58:10.174Z,6.60
2023-01-10T07:00:40.421Z,6.60
2023-01-10T07:03:08.565Z,6.60
2023-01-10T07:05:36.904Z,6.60
2023-01-10T07:08:05.324Z,6.50
2023-01-10T07:10:33.579Z,6.60
2023-01-10T07:13:01.764Z,6.60
2023-01-10T07:15:31.682Z,6.50
2023-01-10T07:18:01.521Z,6.50
2023-01-10T07:20:30.179Z,6.50
2023-01-10T07:22:59.591Z,6.50
2023-01-10T07:25:30.210Z,6.50
2023-01-10T07:27:58.410Z,6.50
2023-01-10T07:30:26.602Z,6.60
2023-01-10T07:32:56.045Z,6.50
2023-01-10T07:35:26.875Z,6.60
2023-01-10T07:37:55.151Z,6.60
2023-01-10T07:40:23.374Z,6.60
2023-01-10T07:42:51.625Z,6.60
2023-01-10T07:45:19.831Z,6.70
2023-01-10T07:47:48.069Z,6.70
2023-01-10T07:50:18.075Z,6.80
2023-01-10T07:52:47.809Z,6.80
2023-01-10T07:55:16.104Z,6.80
2023-01-10T07:57:44.259Z,6.90
2023-01-10T08:00:13.567Z,6.80
2023-01-10T08:02:41.975Z,6.80
2023-01-10T08:05:10.971Z,6.80
2023-01-10T08:07:39.353Z,6.90
2023-01-10T08:10:10.218Z,6.90
2023-01-10T08:12:38.521Z,6.80
2023-01-10T08:15:07.613Z,6.80
2023-01-10T08:17:36.448Z,6.70
2023-01-10T08:20:05.215Z,6.90
2023-01-10T08:22:33.423Z,6.80
2023-01-10T08:25:01.691Z,6.70
2023-01-10T08:27:31.246Z,6.80
2023-01-10T08:29:59.733Z,6.80
2023-01-10T08:32:28.112Z,6.70
2023-01-10T08:34:56.237Z,6.60
2023-01-10T08:37:24.466Z,6.60
2023-01-10T08:39:52.722Z,6.60
2023-01-10T08:42:20.975Z,6.50
2023-01-10T08:44:50.553Z,6.50
2023-01-10T08:47:18.998Z,6.50
2023-01-10T08:49:47.171Z,6.30
2023-01-10T08:52:15.385Z,6.40
2023-01-10T08:54:43.954Z,6.30
2023-01-10T08:57:12.293Z,6.30
2023-01-10T08:59:40.468Z,6.40
2023-01-10T09:02:13.515Z,6.40
2023-01-10T09:04:41.832Z,6.30
2023-01-10T09:07:09.977Z,6.40
2023-01-10T09:09:38.504Z,6.40
2023-01-10T09:12:27.415Z,6.40
2023-01-10T09:14:55.748Z,6.40
2023-01-10T09:17:25.373Z,6.70
2023-01-10T09:19:53.610Z,6.50
2023-01-10T09:22:21.826Z,6.60
2023-01-10T09:24:50.107Z,6.80
2023-01-10T09:27:18.247Z,7.00
2023-01-10T09:29:46.424Z,6.60
2023-01-10T09:32:14.895Z,6.60
2023-01-10T09:34:44.539Z,6.60
2023-01-10T09:37:12.770Z,6.50
2023-01-10T09:39:41.003Z,6.60
2023-01-10T09:42:28.313Z,6.50
2023-01-10T09:45:07.410Z,6.50
2023-01-10T09:47:44.075Z,6.60
2023-01-10T09:50:20.725Z,6.70
2023-01-10T09:52:53.250Z,6.70
2023-01-10T09:55:31.504Z,6.70
2023-01-10T09:58:05.145Z,6.80
2023-01-10T10:00:40.528Z,6.70
2023-01-10T10:03:20.185Z,6.70
2023-01-10T10:05:52.651Z,6.50
2023-01-10T10:08:21.909Z,6.60
2023-01-10T10:11:01.642Z,6.60
2023-01-10T10:13:42.033Z,6.60
2023-01-10T10:16:20.173Z,6.50
2023-01-10T10:18:57.146Z,6.40
2023-01-10T10:21:34.793Z,6.40
2023-01-10T10:24:34.264Z,6.60
2023-01-10T10:27:15.428Z,6.50
2023-01-10T10:30:01.443Z,6.40
2023-01-10T10:32:54.097Z,6.50
2023-01-10T10:35:28.611Z,6.40
2023-01-10T10:38:03.215Z,6.30
2023-01-10T10:40:36.951Z,6.40
2023-01-10T10:43:16.361Z,6.50
2023-01-10T10:45:49.250Z,6.60
2023-01-10T10:48:23.068Z,6.50
2023-01-10T10:51:03.600Z,6.50
2023-01-10T10:53:34.794Z,6.40
2023-01-10T10:56:05.311Z,6.50
2023-01-10T10:58:33.856Z,6.40
2023-01-10T11:01:02.512Z,6.40
2023-01-10T11:03:39.590Z,6.50
2023-01-10T11:06:09.189Z,6.70
2023-01-10T11:08:43.195Z,6.60
2023-01-10T11:11:20.640Z,6.50
2023-01-10T11:13:53.359Z,6.30
2023-01-10T11:16:30.792Z,6.30
2023-01-10T11:19:26.960Z,6.40
2023-01-10T11:21:57.914Z,6.40
2023-01-10T11:24:33.519Z,6.50
2023-01-10T11:27:05.471Z,6.70
2023-01-10T11:29:39.798Z,6.60
2023-01-10T11:32:15.241Z,6.70
2023-01-10T11:34:50.232Z,6.60
2023-01-10T11:37:25.268Z,6.70
2023-01-10T11:40:16.193Z,6.50
2023-01-10T11:42:44.712Z,6.50
2023-01-10T11:45:32.730Z,6.50
2023-01-10T11:48:18.576Z,6.80
2023-01-10T11:50:51.546Z,6.80
2023-01-10T11:53:47.463Z,6.80
2023-01-10T11:56:26.186Z,6.60
2023-01-10T11:58:55.005Z,6.70
2023-01-10T12:01:33.024Z,6.60
2023-01-10T12:04:01.479Z,6.70
2023-01-10T12:06:30.177Z,6.70
2023-01-10T12:08:58.475Z,6.90
2023-01-10T12:11:31.079Z,6.70
2023-01-10T12:14:01.014Z,6.70
2023-01-10T12:16:30.614Z,6.80
2023-01-10T12:19:01.101Z,6.70
2023-01-10T12:21:34.771Z,6.60
2023-01-10T12:24:07.290Z,6.60
2023-01-10T12:26:37.451Z,6.70
2023-01-10T12:29:12.755Z,6.60
2023-01-10T12:31:42.147Z,6.60
2023-01-10T12:34:20.047Z,6.50
2023-01-10T12:36:57.189Z,6.50
2023-01-10T12:39:30.413Z,6.50
2023-01-10T12:42:30.309Z,6.70
2023-01-10T12:45:04.088Z,6.50
2023-01-10T12:47:39.534Z,6.60
2023-01-10T12:50:14.783Z,6.60
2023-01-10T12:52:49.121Z,6.50
2023-01-10T12:55:19.286Z,6.60
2023-01-10T12:57:52.060Z,6.60
2023-01-10T13:00:25.328Z,6.70
2023-01-10T13:02:57.092Z,6.60
2023-01-10T13:05:27.810Z,6.80
2023-01-10T13:08:01.735Z,6.70
2023-01-10T13:10:30.655Z,6.60
2023-01-10T13:13:05.540Z,6.60
2023-01-10T13:15:39.707Z,6.60
2023-01-10T13:18:21.289Z,6.50
2023-01-10T13:20:49.526Z,6.70
2023-01-10T13:23:30.325Z,6.70
2023-01-10T13:26:02.801Z,6.80
2023-01-10T13:28:35.127Z,6.80
2023-01-10T13:31:07.162Z,6.80
2023-01-10T13:33:40.442Z,6.70
2023-01-10T13:36:13.104Z,6.40
2023-01-10T13:38:51.187Z,6.70
2023-01-10T13:41:37.836Z,6.70
2023-01-10T13:44:11.373Z,6.70
2023-01-10T13:46:48.882Z,6.80
2023-01-10T13:49:48.999Z,6.80
2023-01-10T13:52:37.926Z,6.70
2023-01-10T13:55:27.723Z,6.80
2023-01-10T13:58:00.528Z,6.70
2023-01-10T14:01:06.878Z,6.80
2023-01-10T14:03:53.540Z,6.70
2023-01-10T14:06:41.266Z,6.70
2023-01-10T14:09:34.270Z,6.60
2023-01-10T14:12:04.548Z,6.60
2023-01-10T14:14:37.198Z,6.60
2023-01-10T14:17:16.136Z,6.60
2023-01-10T14:19:46.787Z,6.60
2023-01-10T14:22:28.287Z,6.60
2023-01-10T14:24:56.667Z,6.70
2023-01-10T14:27:25.131Z,6.70
2023-01-10T14:29:57.377Z,6.70
2023-01-10T14:32:35.845Z,6.50
2023-01-10T14:35:07.544Z,6.50
2023-01-10T14:37:42.259Z,6.50
2023-01-10T14:40:25.519Z,6.50
2023-01-10T14:42:58.509Z,6.50
2023-01-10T14:45:36.426Z,6.40
2023-01-10T14:48:27.848Z,6.40
2023-01-10T14:51:09.206Z,6.40
2023-01-10T14:53:37.439Z,6.40
2023-01-10T14:56:17.897Z,6.50
2023-01-10T14:58:46.176Z,6.50
2023-01-10T15:01:18.889Z,6.50
2023-01-10T15:03:48.833Z,6.40
2023-01-10T15:06:16.986Z,6.40
2023-01-10T15:08:45.234Z,6.40
2023-01-10T15:11:15.246Z,6.50
2023-01-10T15:13:50.370Z,6.30
2023-01-10T15:18:51.125Z,6.30
2023-01-10T15:21:22.309Z,6.40
2023-01-10T15:23:52.288Z,6.40
2023-01-10T15:26:27.398Z,6.30
2023-01-10T15:29:13.452Z,6.40
2023-01-10T15:31:42.666Z,6.30
2023-01-10T15:34:18.234Z,6.20
2023-01-10T15:36:49.680Z,6.20
2023-01-10T15:39:21.523Z,6.20
2023-01-10T15:41:51.497Z,6.20
2023-01-10T15:44:24.691Z,6.30
2023-01-10T15:46:57.099Z,6.20
2023-01-10T15:49:28.138Z,6.30
2023-01-10T15:51:57.641Z,6.30
2023-01-10T15:54:33.164Z,6.30
2023-01-10T15:57:18.514Z,6.20
2023-01-10T15:59:49.983Z,6.20
2023-01-10T16:02:24.897Z,6.00
2023-01-10T16:04:57.900Z,5.90
2023-01-10T16:07:29.069Z,5.90
2023-01-10T16:10:01.041Z,5.80
2023-01-10T16:12:53.383Z,5.80
2023-01-10T16:15:24.250Z,5.80
2023-01-10T16:17:53.473Z,5.70
2023-01-10T16:20:26.907Z,5.70
2023-01-10T16:22:56.597Z,5.60
2023-01-10T16:25:32.004Z,5.60
2023-01-10T16:28:00.954Z,5.60
2023-01-10T16:30:31.179Z,5.60
2023-01-10T16:33:01.004Z,5.60
2023-01-10T16:35:30.585Z,5.60
2023-01-10T16:38:00.618Z,5.60
2023-01-10T16:40:31.125Z,5.70
2023-01-10T16:43:16.951Z,5.60
2023-01-10T16:45:46.130Z,5.60
2023-01-10T16:48:14.863Z,5.60
2023-01-10T16:50:44.948Z,5.50
2023-01-10T16:53:13.917Z,5.50
2023-01-10T16:55:45.384Z,5.50
2023-01-10T16:58:15.070Z,5.50
2023-01-10T17:00:47.025Z,5.40
2023-01-10T17:03:18.029Z,5.50
2023-01-10T17:05:48.173Z,5.50
2023-01-10T17:08:18.639Z,5.50
2023-01-10T17:10:49.296Z,5.40
2023-01-10T17:13:23.733Z,5.40
2023-01-10T17:15:52.020Z,5.40
2023-01-10T17:18:20.214Z,5.40
2023-01-10T17:20:49.867Z,5.40
2023-01-10T17:23:18.057Z,5.40
2023-01-10T17:25:47.233Z,5.40
2023-01-10T17:28:15.444Z,5.40
2023-01-10T17:30:44.668Z,5.40
2023-01-10T17:33:13.698Z,5.50
2023-01-10T17:35:42.342Z,5.30
2023-01-10T17:38:13.499Z,5.30
2023-01-10T17:40:42.115Z,5.40
2023-01-10T17:43:11.153Z,5.30
2023-01-10T17:45:41.078Z,5.30
2023-01-10T17:48:10.128Z,5.30
2023-01-10T17:50:38.653Z,5.40
2023-01-10T17:53:07.436Z,5.30
2023-01-10T17:55:37.368Z,5.30
2023-01-10T17:58:05.604Z,5.40
2023-01-10T18:00:33.855Z,5.40
2023-01-10T18:03:02.095Z,5.40
2023-01-10T18:05:32.705Z,5.40
2023-01-10T18:08:02.258Z,5.40
2023-01-10T18:10:30.645Z,5.40
2023-01-10T18:13:03.180Z,5.40
2023-01-10T18:15:31.800Z,5.40
2023-01-10T18:18:00.001Z,5.40
2023-01-10T18:20:28.395Z,5.40
2023-01-10T18:23:14.159Z,5.40
2023-01-10T18:25:42.483Z,5.40
2023-01-10T18:28:11.991Z,5.40
2023-01-10T18:30:40.450Z,5.40
2023-01-10T18:33:08.910Z,5.30
2023-01-10T18:35:38.745Z,5.30
2023-01-10T18:38:06.883Z,5.30
2023-01-10T18:40:35.156Z,5.20
2023-01-10T18:43:03.323Z,5.20
2023-01-10T18:45:32.905Z,5.30
2023-01-10T18:48:02.437Z,5.30
2023-01-10T18:50:30.662Z,5.30
2023-01-10T18:52:59.971Z,5.30
2023-01-10T18:55:28.499Z,5.40
2023-01-10T18:57:56.683Z,5.40
2023-01-10T19:00:25.299Z,5.40
2023-01-10T19:02:57.786Z,5.40
2023-01-10T19:05:26.147Z,5.40
2023-01-10T19:07:54.329Z,5.40
2023-01-10T19:10:22.790Z,5.40
2023-01-10T19:12:51.051Z,5.40
2023-01-10T19:15:19.463Z,5.40
2023-01-10T19:17:47.656Z,5.30
2023-01-10T19:20:17.881Z,5.40
2023-01-10T19:22:47.565Z,5.40
2023-01-10T19:25:15.998Z,5.30
2023-01-10T19:27:44.146Z,5.40
2023-01-10T19:30:12.854Z,5.40
2023-01-10T19:32:41.151Z,5.30
2023-01-10T19:35:10.419Z,5.20
2023-01-10T19:37:40.159Z,5.30
2023-01-10T19:40:10.194Z,5.30
2023-01-10T19:42:38.490Z,5.20
2023-01-10T19:45:08.224Z,5.20
2023-01-10T19:47:36.975Z,5.20
2023-01-10T19:50:05.863Z,5.20
2023-01-10T19:52:34.061Z,5.10
2023-01-10T19:55:03.773Z,5.10
2023-01-10T19:57:31.941Z,5.10
2023-01-10T20:00:00.199Z,5.10
2023-01-10T20:02:28.553Z,5.10
2023-01-10T20:04:56.844Z,5.10
2023-01-10T20:07:25.007Z,5.00
2023-01-10T20:09:56.752Z,4.90
2023-01-10T20:12:26.885Z,4.80
2023-01-10T20:14:55.087Z,4.80
2023-01-10T20:17:23.668Z,4.70
2023-01-10T20:19:51.799Z,4.60
2023-01-10T20:22:20.203Z,4.50
2023-01-10T20:24:48.448Z,4.50
2023-01-10T20:27:16.640Z,4.40
2023-01-10T20:29:46.435Z,4.30
2023-01-10T20:32:15.216Z,4.10
2023-01-10T20:34:44.339Z,4.00
2023-01-10T20:37:14.217Z,3.90
2023-01-10T20:39:42.656Z,3.80
2023-01-10T20:42:10.938Z,3.80
2023-01-10T20:44:39.268Z,3.70
2023-01-10T20:47:08.950Z,3.70
2023-01-10T20:49:37.170Z,3.60
2023-01-10T20:52:05.744Z,3.50
2023-01-10T20:54:34.864Z,3.40
2023-01-10T20:57:03.155Z,3.30
2023-01-10T20:59:32.532Z,3.20
2023-01-10T21:02:02.302Z,3.00
2023-01-10T21:04:33.039Z,3.10
2023-01-10T21:07:02.659Z,3.00
2023-01-10T21:09:30.921Z,2.90
2023-01-10T21:12:10.647Z,2.90
2023-01-10T21:14:48.023Z,3.00
2023-01-10T21:17:16.222Z,2.90
2023-01-10T21:19:45.848Z,3.10
2023-01-10T21:22:14.428Z,3.10
2023-01-10T21:24:44.122Z,2.90
2023-01-10T21:27:12.336Z,3.10
2023-01-10T21:29:43.595Z,2.90
2023-01-10T21:32:13.116Z,2.80
2023-01-10T21:34:41.645Z,2.80
2023-01-10T21:37:11.292Z,3.00
2023-01-10T21:39:39.431Z,2.90
2023-01-10T21:42:24.800Z,3.00
2023-01-10T21:44:53.061Z,3.20
2023-01-10T21:47:21.292Z,3.00
2023-01-10T21:49:49.603Z,2.90
2023-01-10T21:52:19.358Z,2.90
2023-01-10T21:54:47.584Z,2.80
2023-01-10T21:57:19.258Z,3.00
2023-01-10T21:59:47.462Z,3.00
2023-01-10T22:02:16.513Z,3.10
2023-01-10T22:04:47.050Z,3.20
2023-01-10T22:07:15.808Z,3.00
2023-01-10T22:09:45.382Z,2.80
2023-01-10T22:12:14.080Z,2.70
2023-01-10T22:14:42.228Z,2.70
2023-01-10T22:17:11.852Z,3.00
2023-01-10T22:19:40.197Z,3.00
2023-01-10T22:22:08.981Z,3.00
2023-01-10T22:24:37.414Z,3.00
2023-01-10T22:27:07.137Z,3.00
2023-01-10T22:29:35.552Z,3.10
2023-01-10T22:32:04.041Z,2.90
2023-01-10T22:34:32.247Z,2.90
2023-01-10T22:37:00.765Z,2.80
2023-01-10T22:39:29.027Z,3.00
2023-01-10T22:41:57.381Z,3.20
2023-01-10T22:44:27.700Z,3.30
2023-01-10T22:46:56.616Z,3.50
2023-01-10T22:49:24.891Z,3.20
2023-01-10T22:51:53.136Z,3.20
2023-01-10T22:54:21.339Z,3.20
2023-01-10T22:56:49.631Z,3.40
2023-01-10T23:02:05.087Z,3.10
2023-01-10T23:04:33.338Z,3.20
2023-01-10T23:07:01.669Z,3.10
2023-01-10T23:09:29.940Z,3.40
2023-01-10T23:11:58.211Z,3.60
2023-01-10T23:14:26.362Z,3.60
2023-01-10T23:16:55.057Z,3.20
2023-01-10T23:19:24.723Z,3.20
2023-01-10T23:21:53.059Z,3.20
2023-01-10T23:24:21.425Z,3.30
2023-01-10T23:26:51.031Z,3.40
2023-01-10T23:29:19.221Z,3.40
2023-01-10T23:31:50.151Z,3.50
2023-01-10T23:34:18.537Z,3.50
2023-01-10T23:36:48.106Z,3.30
2023-01-10T23:39:18.993Z,3.30
2023-01-10T23:41:47.331Z,3.30
2023-01-10T23:44:15.620Z,3.20
2023-01-10T23:46:43.920Z,3.40
2023-01-10T23:49:12.287Z,3.40
2023-01-10T23:51:40.748Z,3.30
2023-01-10T23:54:10.305Z,3.50
2023-01-10T23:56:38.564Z,3.40
2023-01-10T23:59:06.738Z,3.40
